Time;durP1;ratioP1;P1;durP2;ratioP2;P2;SDS_P1;SDS_P2;PMS_P1;PMS_P2;Temp;Humidity;BMP_temperature;BMP_pressure;BME280_temperature;BME280_humidity;BME280_pressure;Samples;Min_cycle;Max_cycle;Signal;HPM_P1;HPM_P2
2022/11/07 00:00:26;;;;;;;33.67;27.30;;;;;;;14.44;99.02;99752.06;5091800;28;20732;-75
2022/11/07 00:02:53;;;;;;;37.33;27.23;;;;;;;14.42;99.29;99748.78;5092538;28;20272;-74
2022/11/07 00:05:21;;;;;;;37.93;26.77;;;;;;;14.42;99.19;99751.44;5091917;28;20188;-74
2022/11/07 00:07:47;;;;;;;37.13;27.60;;;;;;;14.45;99.00;99753.69;5091937;28;20195;-74
2022/11/07 00:10:14;;;;;;;34.47;26.73;;;;;;;14.48;98.79;99747.94;5091878;28;20191;-74
2022/11/07 00:12:41;;;;;;;37.40;27.37;;;;;;;14.46;98.46;99758.00;5095117;28;20662;-75
2022/11/07 00:15:08;;;;;;;32.90;27.83;;;;;;;14.41;98.34;99755.16;5112204;28;20251;-74
2022/11/07 00:17:35;;;;;;;32.93;26.20;;;;;;;14.41;99.00;99749.81;5092216;28;20219;-75
2022/11/07 00:20:02;;;;;;;37.57;28.40;;;;;;;14.45;98.86;99751.03;5091568;28;20214;-76
2022/11/07 00:22:30;;;;;;;39.17;28.10;;;;;;;14.35;98.60;99745.34;5091953;28;20227;-74
2022/11/07 00:24:57;;;;;;;38.07;27.57;;;;;;;14.29;99.18;99754.19;5092149;28;20195;-75
2022/11/07 00:27:23;;;;;;;37.00;27.60;;;;;;;14.22;100.00;99757.94;5091482;28;20188;-75
2022/11/07 00:29:50;;;;;;;34.20;27.57;;;;;;;14.25;100.00;99761.00;5091486;28;20671;-76
2022/11/07 00:32:17;;;;;;;33.53;28.10;;;;;;;14.21;100.00;99751.75;5093375;28;20336;-76
2022/11/07 00:34:43;;;;;;;39.07;28.30;;;;;;;14.19;100.00;99747.63;5094965;28;20195;-75
2022/11/07 00:37:10;;;;;;;41.00;27.90;;;;;;;14.22;100.00;99750.72;5095080;28;20622;-75
2022/11/07 00:39:38;;;;;;;34.97;28.57;;;;;;;14.25;100.00;99758.31;5095468;28;20336;-74
2022/11/07 00:42:05;;;;;;;43.37;28.63;;;;;;;14.32;100.00;99747.59;5095107;28;20355;-75
2022/11/07 00:44:32;;;;;;;38.80;30.20;;;;;;;14.34;100.00;99749.03;5094932;28;20627;-74
2022/11/07 00:46:58;;;;;;;37.47;29.83;;;;;;;14.40;100.00;99747.34;5095282;28;20256;-75
2022/11/07 00:49:25;;;;;;;40.50;30.40;;;;;;;14.39;100.00;99745.72;5095159;28;20244;-75
2022/11/07 00:51:52;;;;;;;40.67;30.97;;;;;;;14.39;100.00;99759.09;5094771;28;20245;-74
2022/11/07 00:54:18;;;;;;;36.87;31.37;;;;;;;14.33;100.00;99760.75;5094933;28;20685;-74
2022/11/07 00:56:46;;;;;;;41.63;31.87;;;;;;;14.39;100.00;99754.56;5094880;28;20656;-74
2022/11/07 00:59:13;;;;;;;43.67;31.23;;;;;;;14.39;100.00;99746.53;5095096;28;20252;-74
2022/11/07 01:01:40;;;;;;;40.90;32.07;;;;;;;14.38;100.00;99752.91;5094514;28;20254;-74
2022/11/07 01:06:51;;;;;;;42.47;32.13;;;;;;;14.31;100.00;99751.31;5094721;28;20244;-74
2022/11/07 01:09:21;;;;;;;41.47;29.53;;;;;;;14.32;100.00;99751.09;5095066;28;20245;-74
2022/11/07 01:11:49;;;;;;;48.33;32.40;;;;;;;14.29;100.00;99746.16;5094551;28;20236;-74
2022/11/07 01:14:18;;;;;;;43.10;31.67;;;;;;;14.41;100.00;99760.50;5111585;28;20259;-74
2022/11/07 01:16:46;;;;;;;44.27;31.10;;;;;;;14.43;100.00;99758.44;5102201;28;20249;-74
2022/11/07 01:19:13;;;;;;;39.87;29.63;;;;;;;14.49;100.00;99756.75;5094918;28;20202;-75
2022/11/07 01:21:41;;;;;;;42.07;29.67;;;;;;;14.46;100.00;99752.66;5094696;28;20276;-75
2022/11/07 01:24:10;;;;;;;42.23;31.50;;;;;;;14.51;99.65;99746.69;5094443;28;20195;-75
2022/11/07 01:26:38;;;;;;;40.00;30.47;;;;;;;14.43;99.96;99755.78;5094194;28;20756;-75
2022/11/07 01:29:07;;;;;;;41.03;31.33;;;;;;;14.49;100.00;99759.41;5094341;28;20192;-74
2022/11/07 01:31:34;;;;;;;42.47;30.97;;;;;;;14.48;99.90;99757.78;5108827;28;20199;-74
2022/11/07 01:34:01;;;;;;;48.83;32.13;;;;;;;14.46;99.79;99749.19;5115006;28;20248;-75
2022/11/07 01:36:28;;;;;;;44.07;32.03;;;;;;;14.49;100.00;99748.72;5114821;28;20251;-75
2022/11/07 01:38:54;;;;;;;43.47;31.23;;;;;;;14.48;100.00;99755.13;5114970;28;20191;-75
2022/11/07 01:41:26;;;;;;;40.60;32.47;;;;;;;14.44;99.94;99757.41;5114327;28;20190;-75
2022/11/07 01:43:57;;;;;;;46.10;32.37;;;;;;;14.40;100.00;99758.88;5114742;28;20239;-75
2022/11/07 01:46:28;;;;;;;44.17;32.67;;;;;;;14.43;100.00;99750.44;5114916;28;20613;-75
2022/11/07 01:49:02;;;;;;;41.80;31.70;;;;;;;14.48;100.00;99753.28;5115016;28;20240;-74
2022/11/07 01:51:32;;;;;;;43.67;32.07;;;;;;;14.48;100.00;99753.28;5114318;28;20179;-74
2022/11/07 01:54:00;;;;;;;46.60;33.90;;;;;;;14.45;100.00;99751.03;5114517;28;20231;-75
2022/11/07 01:56:31;;;;;;;46.00;33.40;;;;;;;14.45;100.00;99756.38;5114148;28;20732;-74
2022/11/07 01:59:00;;;;;;;47.20;33.30;;;;;;;14.44;100.00;99752.06;5114679;28;20186;-75
2022/11/07 02:01:28;;;;;;;42.70;32.97;;;;;;;14.47;100.00;99762.34;5114210;28;20626;-74
2022/11/07 02:03:56;;;;;;;44.27;33.77;;;;;;;14.40;100.00;99756.19;5114466;28;20198;-75
2022/11/07 02:06:29;;;;;;;49.03;34.33;;;;;;;14.42;100.00;99759.47;5114237;28;20190;-75
2022/11/07 02:08:56;;;;;;;49.17;35.20;;;;;;;14.51;100.00;99760.88;5114944;28;20316;-75
2022/11/07 02:11:23;;;;;;;44.83;32.43;;;;;;;14.42;100.00;99759.47;5114691;28;20597;-74
2022/11/07 02:13:50;;;;;;;50.27;34.23;;;;;;;14.35;100.00;99761.38;5100031;28;20256;-75
2022/11/07 02:16:17;;;;;;;47.30;32.97;;;;;;;14.31;100.00;99765.50;5102362;28;20230;-75
2022/11/07 02:18:46;;;;;;;44.63;32.77;;;;;;;14.30;100.00;99771.06;5113636;28;20251;-74
2022/11/07 02:21:23;;;;;;;47.63;34.33;;;;;;;14.23;100.00;99764.91;5113425;28;20723;-75
2022/11/07 02:23:56;;;;;;;43.60;32.30;;;;;;;14.30;100.00;99777.19;5113785;28;20263;-74
2022/11/07 02:26:26;;;;;;;39.77;32.10;;;;;;;14.38;100.00;99768.13;5114044;28;20609;-74
2022/11/07 02:28:55;;;;;;;43.30;32.70;;;;;;;14.43;100.00;99771.81;5110869;28;20187;-74
2022/11/07 02:31:22;;;;;;;43.53;33.57;;;;;;;14.40;100.00;99772.22;5093336;28;20188;-74
2022/11/07 02:33:49;;;;;;;47.50;32.90;;;;;;;14.42;100.00;99774.69;5093992;28;20195;-74
2022/11/07 02:36:19;;;;;;;47.20;33.47;;;;;;;14.42;100.00;99770.16;5092912;28;20199;-74
2022/11/07 02:38:50;;;;;;;47.53;34.00;;;;;;;14.38;100.00;99779.63;5094105;28;20191;-75
2022/11/07 02:41:19;;;;;;;47.37;34.20;;;;;;;14.37;100.00;99783.34;5093191;28;20191;-75
2022/11/07 02:43:52;;;;;;;48.57;32.97;;;;;;;14.32;100.00;99777.81;5093086;28;20295;-75
2022/11/07 02:46:21;;;;;;;46.87;32.80;;;;;;;14.11;100.00;99755.88;5092592;28;20651;-75
2022/11/07 02:48:50;;;;;;;46.07;33.00;;;;;;;14.23;100.00;99781.78;5092786;28;20195;-75
2022/11/07 02:51:17;;;;;;;45.30;32.57;;;;;;;14.17;100.00;99771.88;5092618;28;20191;-75
2022/11/07 02:53:43;;;;;;;41.93;32.23;;;;;;;14.27;100.00;99779.50;5092915;28;20261;-75
2022/11/07 02:56:10;;;;;;;49.70;33.67;;;;;;;14.20;100.00;99782.16;5092116;28;20249;-75
2022/11/07 02:58:37;;;;;;;47.73;32.67;;;;;;;14.02;100.00;99747.31;5092285;28;20195;-75
2022/11/07 03:01:06;;;;;;;42.13;32.70;;;;;;;14.17;100.00;99777.22;5092804;28;20187;-75
2022/11/07 03:03:34;;;;;;;40.37;32.00;;;;;;;14.04;100.00;99781.81;5092717;28;20305;-75
2022/11/07 03:06:01;;;;;;;45.27;32.30;;;;;;;14.11;100.00;99775.41;5092696;28;20222;-75
2022/11/07 03:08:28;;;;;;;40.60;31.30;;;;;;;14.15;100.00;99789.16;5093519;28;20195;-75
2022/11/07 03:10:54;;;;;;;45.63;32.20;;;;;;;14.20;100.00;99790.19;5092811;28;20203;-75
2022/11/07 03:13:21;;;;;;;41.43;31.97;;;;;;;14.24;100.00;99778.06;5102093;28;20195;-75
2022/11/07 03:15:48;;;;;;;42.37;32.27;;;;;;;14.26;100.00;99786.66;5108266;28;20191;-75
2022/11/07 03:18:16;;;;;;;46.57;33.80;;;;;;;14.23;100.00;99780.94;5092678;28;20280;-75
2022/11/07 03:20:43;;;;;;;44.13;31.63;;;;;;;14.25;100.00;99779.69;5092529;28;20191;-75
2022/11/07 03:23:09;;;;;;;41.17;32.53;;;;;;;14.27;100.00;99782.16;5092692;28;20218;-75
2022/11/07 03:25:36;;;;;;;39.77;30.17;;;;;;;14.28;100.00;99781.94;5092417;28;20188;-74
2022/11/07 03:28:03;;;;;;;37.87;31.10;;;;;;;14.28;100.00;99773.94;5092474;28;20195;-75
2022/11/07 03:30:29;;;;;;;37.60;30.70;;;;;;;14.30;100.00;99782.53;5091936;28;20237;-75
2022/11/07 03:32:57;;;;;;;45.80;31.37;;;;;;;14.31;100.00;99778.88;5092698;28;20195;-75
2022/11/07 03:35:26;;;;;;;43.47;32.63;;;;;;;14.31;100.00;99778.88;5091970;28;20191;-75
2022/11/07 03:37:53;;;;;;;41.30;30.70;;;;;;;14.36;100.00;99787.06;5092100;28;20694;-75
2022/11/07 03:40:20;;;;;;;41.13;31.20;;;;;;;14.33;100.00;99775.94;5092235;28;20245;-75
2022/11/07 03:42:47;;;;;;;44.37;31.10;;;;;;;14.27;100.00;99776.81;5092256;28;20273;-75
2022/11/07 03:45:15;;;;;;;41.10;31.30;;;;;;;14.27;100.00;99772.31;5092173;28;20191;-75
2022/11/07 03:47:43;;;;;;;39.33;30.47;;;;;;;14.31;100.00;99773.53;5092541;28;20191;-75
2022/11/07 03:50:13;;;;;;;42.13;32.40;;;;;;;14.28;100.00;99776.59;5092641;28;20252;-76
2022/11/07 03:52:42;;;;;;;39.47;30.63;;;;;;;14.17;100.00;99771.09;5091907;28;20760;-76
2022/11/07 03:55:09;;;;;;;40.10;31.37;;;;;;;14.15;100.00;99779.31;5092122;28;20195;-75
2022/11/07 03:57:36;;;;;;;38.00;29.80;;;;;;;14.14;100.00;99777.66;5091915;28;20663;-75
2022/11/07 04:00:06;;;;;;;39.57;30.90;;;;;;;14.15;100.00;99784.66;5092080;28;20195;-75
2022/11/07 04:02:32;;;;;;;41.40;29.43;;;;;;;14.21;100.00;99789.16;5091723;28;20272;-76
2022/11/07 04:04:59;;;;;;;39.83;29.50;;;;;;;14.22;100.00;99790.81;5091519;28;20248;-75
2022/11/07 04:07:26;;;;;;;39.03;27.37;;;;;;;14.22;100.00;99798.03;5093100;28;20248;-75
2022/11/07 04:09:54;;;;;;;36.03;29.00;;;;;;;14.25;100.00;99800.28;5095760;28;20191;-75
2022/11/07 04:17:50;;;;;;;39.20;29.43;;;;;;;14.25;100.00;99800.28;5096063;28;20238;-75
2022/11/07 04:20:16;;;;;;;42.03;30.57;;;;;;;14.18;100.00;99800.25;5095805;28;20187;-76
2022/11/07 04:22:43;;;;;;;36.40;28.87;;;;;;;14.21;100.00;99799.84;5095790;28;20223;-75
2022/11/07 04:25:11;;;;;;;36.27;27.40;;;;;;;14.27;100.00;99808.88;5096156;28;20203;-78
2022/11/07 04:27:42;;;;;;;39.33;27.27;;;;;;;14.31;100.00;99804.75;5115714;28;20191;-74
2022/11/07 04:30:23;;;;;;;32.53;26.03;;;;;;;14.26;100.00;99802.72;5102343;28;20240;-74
2022/11/07 04:32:51;;;;;;;34.40;27.07;;;;;;;14.28;100.00;99791.81;5096555;28;20187;-75
2022/11/07 04:35:19;;;;;;;38.63;28.70;;;;;;;14.35;100.00;99796.13;5095147;28;20191;-75
2022/11/07 04:37:47;;;;;;;39.10;27.30;;;;;;;14.40;100.00;99796.28;5095212;28;20191;-77
2022/11/07 04:40:16;;;;;;;36.57;26.70;;;;;;;14.40;100.00;99793.63;5105344;28;20191;-76
2022/11/07 04:42:43;;;;;;;43.40;27.20;;;;;;;14.41;100.00;99797.91;5115390;28;20215;-76
2022/11/07 04:45:11;;;;;;;37.17;27.47;;;;;;;14.46;100.00;99791.94;5115715;28;20586;-74
2022/11/07 04:47:38;;;;;;;35.07;25.50;;;;;;;14.50;100.00;99793.97;5115613;28;20244;-74
2022/11/07 04:50:07;;;;;;;32.53;26.33;;;;;;;14.54;100.00;99794.38;5115694;28;20190;-73
2022/11/07 04:52:34;;;;;;;38.03;27.87;;;;;;;14.59;100.00;99798.03;5115380;28;20263;-73
2022/11/07 04:55:00;;;;;;;39.80;26.67;;;;;;;14.56;100.00;99790.44;5115325;28;20194;-74
2022/11/07 04:57:28;;;;;;;37.20;26.03;;;;;;;14.63;99.81;99799.22;5115041;28;20198;-72
2022/11/07 04:59:55;;;;;;;21.63;15.83;;;;;;;14.79;100.00;99800.59;5114788;28;20630;-76
2022/11/07 05:02:23;;;;;;;24.77;19.50;;;;;;;15.26;100.00;99798.19;5096843;28;20682;-76
2022/11/07 05:04:50;;;;;;;34.97;22.63;;;;;;;15.53;96.91;99804.16;5109584;28;20678;-76
2022/11/07 05:07:17;;;;;;;29.93;21.50;;;;;;;15.64;95.60;99808.78;5115031;28;20289;-73
2022/11/07 05:09:44;;;;;;;27.33;20.57;;;;;;;15.60;93.03;99813.75;5115247;28;20247;-73
2022/11/07 05:12:11;;;;;;;32.13;20.23;;;;;;;15.55;92.24;99821.63;5115215;28;20247;-73
2022/11/07 05:14:39;;;;;;;62.50;38.00;;;;;;;15.41;92.42;99804.03;5094630;28;20256;-73
2022/11/07 05:17:05;;;;;;;76.87;40.50;;;;;;;15.48;92.58;99826.22;5110200;28;20283;-74
2022/11/07 05:19:32;;;;;;;49.47;26.17;;;;;;;15.23;92.68;99828.06;5113867;28;20709;-74
2022/11/07 05:24:43;;;;;;;32.73;23.87;;;;;;;14.96;93.84;99831.94;5114867;28;20580;-74
2022/11/07 05:27:16;;;;;;;32.13;23.03;;;;;;;14.95;94.12;99824.16;5114917;28;20275;-73
2022/11/07 05:29:44;;;;;;;29.50;23.57;;;;;;;14.90;94.48;99827.47;5104462;28;20225;-73
2022/11/07 05:32:11;;;;;;;31.03;22.60;;;;;;;14.85;94.78;99832.66;5094083;28;20309;-72
2022/11/07 05:34:38;;;;;;;30.73;22.33;;;;;;;14.83;95.22;99837.38;5108006;28;20228;-71
2022/11/07 05:37:07;;;;;;;30.87;22.83;;;;;;;14.73;94.41;99834.38;5114018;28;20583;-72
2022/11/07 05:39:34;;;;;;;29.20;20.40;;;;;;;14.81;95.38;99844.81;5114536;28;20665;-71
2022/11/07 05:42:01;;;;;;;33.83;21.70;;;;;;;14.99;97.17;99842.22;5114238;28;20198;-75
2022/11/07 05:44:27;;;;;;;29.50;21.57;;;;;;;15.09;94.26;99857.81;5114700;28;20631;-73
2022/11/07 05:46:56;;;;;;;27.70;17.83;;;;;;;14.99;93.45;99857.47;5105664;28;20219;-76
2022/11/07 05:49:23;;;;;;;27.13;19.13;;;;;;;15.08;93.85;99851.63;5112987;28;20190;-76
2022/11/07 05:51:49;;;;;;;48.23;21.47;;;;;;;15.20;94.59;99855.25;5113441;28;20615;-75
2022/11/07 05:54:16;;;;;;;39.23;21.60;;;;;;;15.31;92.96;99867.94;5113050;28;20678;-73
2022/11/07 05:56:43;;;;;;;31.70;21.47;;;;;;;15.36;92.73;99868.13;5113699;28;20187;-74
2022/11/07 05:59:10;;;;;;;17.20;14.07;;;;;;;15.45;95.73;99858.78;5113335;28;20195;-67
2022/11/07 06:01:37;;;;;;;22.03;15.53;;;;;;;16.06;96.69;99871.44;5107539;28;20187;-72
2022/11/07 06:04:05;;;;;;;24.27;15.50;;;;;;;16.66;92.98;99873.25;5104546;28;20210;-72
2022/11/07 06:06:32;;;;;;;24.53;15.27;;;;;;;17.09;89.07;99880.06;5103735;28;20241;-74
2022/11/07 06:08:59;;;;;;;27.87;18.53;;;;;;;17.65;85.84;99887.72;5102034;28;20601;-72
2022/11/07 06:11:25;;;;;;;22.80;16.60;;;;;;;18.07;83.04;99894.63;5093552;28;20197;-75
2022/11/07 06:13:53;;;;;;;27.20;17.57;;;;;;;18.42;80.88;99908.91;5094340;28;20195;-73
2022/11/07 06:16:20;;;;;;;25.10;15.87;;;;;;;18.61;79.01;99908.50;5092676;28;20258;-74
2022/11/07 06:18:47;;;;;;;24.50;16.40;;;;;;;18.78;78.08;99913.97;5093554;28;20188;-72
2022/11/07 06:21:15;;;;;;;29.23;20.13;;;;;;;19.20;75.35;99928.78;5111208;28;20201;-81
2022/11/07 06:23:42;;;;;;;28.33;19.40;;;;;;;19.27;74.33;99929.47;5110100;28;20726;-77
2022/11/07 06:26:09;;;;;;;29.90;20.90;;;;;;;19.10;73.71;99933.97;5111009;28;20269;-75
2022/11/07 06:28:36;;;;;;;28.43;18.20;;;;;;;19.01;74.35;99941.63;5111406;28;20248;-75
2022/11/07 06:31:04;;;;;;;33.67;20.27;;;;;;;19.06;74.97;99932.81;5112581;28;20193;-76
2022/11/07 06:33:31;;;;;;;31.10;18.87;;;;;;;19.12;74.95;99942.63;5112918;28;20270;-77
2022/11/07 06:36:05;;;;;;;31.93;19.23;;;;;;;19.06;74.64;99954.34;5113470;28;20249;-77
2022/11/07 06:38:34;;;;;;;30.20;16.23;;;;;;;18.87;74.47;99952.91;5110317;28;20231;-78
2022/11/07 06:41:05;;;;;;;18.07;15.07;;;;;;;18.81;76.80;99921.53;5112225;28;20625;-71
2022/11/07 06:43:32;;;;;;;20.63;14.17;;;;;;;19.31;75.45;99957.56;5112774;28;20210;-72
2022/11/07 06:46:02;;;;;;;23.20;16.87;;;;;;;19.62;73.58;99971.38;5113125;28;20244;-72
2022/11/07 06:48:29;;;;;;;24.70;17.30;;;;;;;19.50;73.68;99967.09;5113359;28;20249;-71
2022/11/07 06:50:59;;;;;;;26.43;17.50;;;;;;;19.33;71.18;99980.53;5109433;28;20270;-69
2022/11/07 06:53:26;;;;;;;24.50;16.23;;;;;;;19.43;74.12;99972.63;5076638;28;20220;-69
2022/11/07 06:55:54;;;;;;;35.03;23.40;;;;;;;19.38;71.57;99987.88;5092352;28;20202;-70
2022/11/07 06:58:21;;;;;;;24.07;19.13;;;;;;;19.15;72.28;99986.06;5092738;28;20188;-70
2022/11/07 07:00:48;;;;;;;22.57;18.03;;;;;;;19.24;74.06;99975.78;5092821;28;20192;-71
2022/11/07 07:03:15;;;;;;;21.87;17.43;;;;;;;19.37;72.14;99988.94;5092963;28;20219;-70
2022/11/07 07:05:42;;;;;;;22.50;17.63;;;;;;;19.37;70.37;99997.84;5092303;28;20252;-69
2022/11/07 07:08:11;;;;;;;29.70;22.20;;;;;;;19.26;71.19;99987.94;5092654;28;20229;-78
2022/11/07 07:10:42;;;;;;;31.40;23.60;;;;;;;19.07;72.29;99982.94;5093052;28;20212;-76
2022/11/07 07:13:11;;;;;;;30.30;22.93;;;;;;;18.92;72.64;99985.31;5091821;28;20248;-75
2022/11/07 07:15:38;;;;;;;29.63;20.20;;;;;;;18.66;72.35;99985.84;5092322;28;20735;-78
2022/11/07 07:18:05;;;;;;;24.97;20.83;;;;;;;18.40;74.78;99971.00;5092285;28;20225;-79
2022/11/07 07:20:32;;;;;;;34.23;20.97;;;;;;;18.23;74.78;99970.03;5092337;28;20679;-73
2022/11/07 07:22:58;;;;;;;31.57;18.33;;;;;;;18.05;75.27;99970.13;5092336;28;20256;-75
2022/11/07 07:25:25;;;;;;;25.10;18.93;;;;;;;17.93;76.02;99960.44;5092376;28;20191;-73
2022/11/07 07:27:52;;;;;;;27.13;18.40;;;;;;;17.96;77.03;99962.63;5090277;28;20199;-74
2022/11/07 07:30:20;;;;;;;28.57;19.93;;;;;;;18.06;76.92;99970.97;5089732;28;20199;-71
2022/11/07 07:32:47;;;;;;;23.43;14.07;;;;;;;18.30;79.57;99953.78;5078231;28;20196;-73
2022/11/07 07:35:13;;;;;;;32.30;19.73;;;;;;;18.66;74.63;99975.06;5075667;28;20191;-73
2022/11/07 07:37:40;;;;;;;29.70;18.97;;;;;;;18.71;74.30;99969.78;5092214;28;20195;-70
2022/11/07 07:40:09;;;;;;;21.83;16.97;;;;;;;18.98;76.25;99968.19;5087884;28;20248;-69
2022/11/07 07:42:40;;;;;;;32.80;16.10;;;;;;;19.30;74.39;99970.25;5092107;28;20218;-70
2022/11/07 07:45:09;;;;;;;24.93;18.23;;;;;;;19.40;71.80;99980.41;5091984;28;20276;-70
2022/11/07 07:47:37;;;;;;;24.73;16.20;;;;;;;19.63;71.80;99978.41;5091791;28;20188;-69
2022/11/07 07:50:04;;;;;;;26.33;16.70;;;;;;;19.77;71.14;99976.22;5091803;28;20692;-74
2022/11/07 07:52:31;;;;;;;26.90;16.77;;;;;;;19.85;73.27;99948.84;5092072;28;20248;-75
2022/11/07 07:54:57;;;;;;;25.90;18.00;;;;;;;20.33;71.13;99967.97;5080861;28;20253;-77
2022/11/07 07:57:24;;;;;;;35.57;16.73;;;;;;;20.68;70.89;99965.78;5071048;28;20249;-77
2022/11/07 07:59:51;;;;;;;33.07;16.93;;;;;;;20.94;67.49;99978.56;5071891;28;20249;-73
2022/11/07 08:02:18;;;;;;;24.20;14.87;;;;;;;21.17;67.61;99972.09;5071814;28;20249;-73
2022/11/07 08:04:46;;;;;;;20.37;15.80;;;;;;;21.34;66.05;99976.34;5078682;28;20264;-73
2022/11/07 08:07:12;;;;;;;26.00;17.67;;;;;;;21.37;64.79;99975.00;5091760;28;20599;-70
2022/11/07 08:09:39;;;;;;;23.87;17.97;;;;;;;21.38;63.81;99980.16;5091985;28;20187;-71
2022/11/07 08:12:08;;;;;;;23.97;16.63;;;;;;;21.49;64.47;99978.38;5091683;28;20731;-71
2022/11/07 08:14:35;;;;;;;24.03;16.53;;;;;;;21.66;65.18;99968.28;5086030;28;20286;-71
2022/11/07 08:17:01;;;;;;;27.23;15.07;;;;;;;21.90;64.53;99970.44;5079602;28;20223;-72
2022/11/07 08:19:28;;;;;;;25.70;15.40;;;;;;;21.89;61.60;99968.00;5080514;28;20264;-72
2022/11/07 08:21:56;;;;;;;24.70;15.23;;;;;;;22.11;62.05;99956.00;5078979;28;20223;-72
2022/11/07 08:24:23;;;;;;;20.50;12.10;;;;;;;22.15;60.54;99973.34;5077972;28;20268;-72
2022/11/07 08:26:49;;;;;;;13.50;8.90;;;;;;;22.14;57.38;99982.56;5086419;28;20631;-73
2022/11/07 08:29:16;;;;;;;13.20;7.63;;;;;;;21.71;58.60;99977.28;5082325;28;20248;-72
2022/11/07 08:31:43;;;;;;;24.83;10.20;;;;;;;21.99;60.36;99973.47;5092326;28;20192;-71
2022/11/07 08:34:10;;;;;;;25.03;10.70;;;;;;;22.00;58.36;99981.34;5091488;28;20727;-71
2022/11/07 08:36:36;;;;;;;8.20;7.27;;;;;;;22.09;56.99;99995.22;5092044;28;20187;-72
2022/11/07 08:39:04;;;;;;;8.13;6.20;;;;;;;22.14;56.04;100000.66;5083585;28;20196;-73
2022/11/07 08:41:31;;;;;;;9.07;5.87;;;;;;;21.87;55.24;99992.59;5085821;28;20295;-72
2022/11/07 08:43:58;;;;;;;10.10;5.57;;;;;;;21.72;56.62;99983.53;5091193;28;20222;-72
2022/11/07 08:46:25;;;;;;;9.47;6.47;;;;;;;21.56;57.09;99984.41;5090989;28;20192;-73
2022/11/07 08:48:51;;;;;;;9.80;6.43;;;;;;;21.65;56.52;99989.13;5091138;28;20736;-73
2022/11/07 08:51:18;;;;;;;6.03;5.43;;;;;;;21.63;56.13;99988.53;5086808;28;22463;-72
2022/11/07 08:53:45;;;;;;;12.20;6.30;;;;;;;21.78;57.04;99993.31;5083532;28;20191;-71
2022/11/07 08:56:13;;;;;;;12.97;6.07;;;;;;;21.94;55.72;99998.63;5085794;28;20246;-74
2022/11/07 08:58:39;;;;;;;9.67;6.70;;;;;;;21.77;55.65;99995.22;5074988;28;20196;-72
2022/11/07 09:01:08;;;;;;;9.23;6.53;;;;;;;21.85;56.34;99997.44;5073103;28;20196;-73
2022/11/07 09:03:36;;;;;;;12.17;6.50;;;;;;;21.75;55.94;99981.13;5071756;28;20652;-73
2022/11/07 09:06:04;;;;;;;9.80;6.00;;;;;;;22.12;56.30;99991.97;5074857;28;20192;-73
2022/11/07 09:08:31;;;;;;;11.77;7.07;;;;;;;22.28;54.54;99994.56;5074704;28;20583;-70
2022/11/07 09:11:01;;;;;;;11.90;7.23;;;;;;;22.47;54.62;100003.94;5074083;28;20599;-70
2022/11/07 09:13:29;;;;;;;7.57;6.50;;;;;;;22.55;53.39;100003.44;5084493;28;20222;-67
2022/11/07 09:15:58;;;;;;;6.17;5.60;;;;;;;22.71;53.57;99994.31;5088079;28;20590;-67
2022/11/07 09:18:25;;;;;;;9.70;6.03;;;;;;;22.82;53.17;99996.00;5074501;28;20638;-69
2022/11/07 09:20:52;;;;;;;6.70;5.97;;;;;;;22.99;53.11;99999.34;5074256;28;20249;-69
2022/11/07 09:23:18;;;;;;;10.90;6.83;;;;;;;23.19;52.26;100002.13;5074141;28;20621;-69
2022/11/07 09:25:45;;;;;;;7.03;6.37;;;;;;;23.11;51.26;100005.34;5073915;28;20216;-69
2022/11/07 09:28:12;;;;;;;8.50;6.13;;;;;;;23.22;52.54;100000.81;5078606;28;20188;-74
2022/11/07 09:30:40;;;;;;;9.53;7.30;;;;;;;23.33;51.23;99992.47;5078488;28;20196;-74
2022/11/07 09:33:07;;;;;;;11.37;6.90;;;;;;;23.33;50.01;100008.75;5072806;28;20208;-74
2022/11/07 09:35:34;;;;;;;9.67;6.83;;;;;;;23.24;50.18;100015.72;5073992;28;20197;-74
2022/11/07 09:38:01;;;;;;;7.73;6.83;;;;;;;23.07;50.97;99998.03;5075764;28;20576;-74
2022/11/07 09:40:39;;;;;;;10.93;7.23;;;;;;;23.10;50.83;99984.75;5085321;28;20587;-75
2022/11/07 09:43:27;;;;;;;12.20;8.10;;;;;;;23.10;50.13;99992.88;5084620;28;20631;-76
2022/11/07 09:46:04;;;;;;;10.97;7.40;;;;;;;22.98;50.83;99983.34;5073385;28;20630;-75
2022/11/07 09:48:38;;;;;;;14.67;8.00;;;;;;;22.87;50.67;99985.19;5090489;28;20184;-74
2022/11/07 09:51:10;;;;;;;10.97;7.10;;;;;;;22.78;51.28;99970.53;5093990;28;20190;-76
2022/11/07 09:53:42;;;;;;;12.67;7.57;;;;;;;22.72;51.88;99974.28;5082061;28;20180;-72
2022/11/07 09:56:12;;;;;;;10.53;7.63;;;;;;;21.86;54.16;99965.78;5086531;28;20238;-73
2022/11/07 09:58:42;;;;;;;11.00;7.60;;;;;;;22.20;53.80;99967.97;5077440;28;20575;-74
2022/11/07 10:01:13;;;;;;;14.30;7.90;;;;;;;22.36;53.42;99972.41;5075665;28;20192;-74
2022/11/07 10:03:41;;;;;;;12.50;9.87;;;;;;;22.69;52.84;99969.41;5084073;28;20180;-78
2022/11/07 10:06:16;;;;;;;9.03;7.97;;;;;;;22.73;52.10;99970.50;5072864;28;20226;-76
2022/11/07 10:08:50;;;;;;;12.73;7.93;;;;;;;22.81;51.90;99969.16;5073731;28;20635;-78
2022/11/07 10:11:30;;;;;;;10.50;7.63;;;;;;;22.84;51.18;99966.78;5073464;28;20262;-75
2022/11/07 10:14:04;;;;;;;8.80;7.93;;;;;;;22.83;51.56;99967.81;5072371;28;20706;-73
2022/11/07 10:16:46;;;;;;;12.20;7.93;;;;;;;22.93;50.87;99965.19;5083654;28;20287;-76
2022/11/07 10:19:26;;;;;;;12.17;8.40;;;;;;;22.86;50.87;99964.59;5093330;28;20655;-80
2022/11/07 10:22:03;;;;;;;11.03;8.47;;;;;;;22.99;50.58;99964.09;5093214;28;20213;-74
2022/11/07 10:24:45;;;;;;;13.23;8.07;;;;;;;22.94;50.62;99955.97;5093846;28;20262;-74
2022/11/07 10:27:13;;;;;;;11.70;8.90;;;;;;;22.85;50.48;99935.88;5082255;28;20219;-74
2022/11/07 10:29:45;;;;;;;9.17;7.87;;;;;;;22.93;50.67;99946.22;5082808;28;20187;-72
2022/11/07 10:32:22;;;;;;;12.77;8.60;;;;;;;22.88;51.65;99950.78;5092995;28;20293;-79
2022/11/07 10:34:55;;;;;;;7.90;7.23;;;;;;;23.06;52.57;99940.28;5079264;28;20188;-77
2022/11/07 10:37:21;;;;;;;11.27;7.97;;;;;;;23.19;50.61;99937.06;5073090;28;20188;-76
2022/11/07 10:39:48;;;;;;;10.60;8.90;;;;;;;23.16;50.68;99934.88;5072927;28;20736;-73
2022/11/07 10:42:19;;;;;;;14.30;9.00;;;;;;;23.00;50.46;99927.00;5072818;28;20257;-73
2022/11/07 10:44:46;;;;;;;14.20;9.50;;;;;;;22.78;50.64;99932.59;5072420;28;20281;-76
2022/11/07 10:47:19;;;;;;;15.23;8.57;;;;;;;22.79;53.27;99915.25;5078450;28;20241;-78
2022/11/07 10:49:57;;;;;;;10.83;9.50;;;;;;;22.94;51.83;99918.03;5093367;28;20623;-79
2022/11/07 10:52:25;;;;;;;11.67;9.13;;;;;;;23.03;52.06;99911.00;5092701;28;20724;-78
2022/11/07 10:54:52;;;;;;;18.80;9.70;;;;;;;22.84;50.13;99909.88;5083413;28;20745;-73
2022/11/07 10:57:20;;;;;;;13.73;9.60;;;;;;;22.67;51.36;99901.13;5072804;28;20749;-79
2022/11/07 10:59:56;;;;;;;14.47;10.20;;;;;;;22.49;51.52;99904.28;5072599;28;20187;-76
2022/11/07 11:02:26;;;;;;;15.87;9.70;;;;;;;22.56;51.89;99898.63;5076874;28;20198;-77
2022/11/07 11:04:55;;;;;;;11.90;9.60;;;;;;;22.36;51.64;99896.63;5093067;28;20268;-78
2022/11/07 11:07:25;;;;;;;15.90;10.50;;;;;;;22.31;52.08;99888.47;5088176;28;20192;-81
2022/11/07 11:09:54;;;;;;;16.27;10.07;;;;;;;22.31;51.95;99890.34;5072900;28;20637;-74
2022/11/07 11:12:25;;;;;;;13.17;11.20;;;;;;;22.10;52.21;99875.91;5078838;28;20196;-77
2022/11/07 11:15:03;;;;;;;15.63;10.97;;;;;;;22.14;52.86;99882.44;5082702;28;20246;-74
2022/11/07 11:17:32;;;;;;;13.33;11.07;;;;;;;22.11;52.88;99869.41;5074488;28;20301;-75
2022/11/07 11:19:59;;;;;;;16.27;10.70;;;;;;;22.17;52.14;99870.25;5074546;28;20210;-76
2022/11/07 11:22:27;;;;;;;22.30;11.50;;;;;;;22.15;52.43;99873.22;5081010;28;20191;-75
2022/11/07 11:25:03;;;;;;;15.63;10.90;;;;;;;22.23;52.53;99861.91;5082587;28;20219;-75
2022/11/07 11:27:34;;;;;;;19.10;11.00;;;;;;;22.25;52.23;99864.34;5081741;28;20186;-77
2022/11/07 11:30:06;;;;;;;11.50;9.70;;;;;;;22.21;54.21;99863.25;5081106;28;20233;-71
2022/11/07 11:32:39;;;;;;;16.70;11.27;;;;;;;22.32;52.80;99876.56;5081301;28;20270;-71